createdAt,value
2022-12-14T00:01:28.216Z,14.70
2022-12-14T00:03:55.945Z,16.97
2022-12-14T00:06:25.462Z,17.20
2022-12-14T00:08:56.755Z,17.13
2022-12-14T00:11:24.095Z,17.80
2022-12-14T00:14:00.299Z,15.17
2022-12-14T00:16:29.685Z,17.20
2022-12-14T00:18:59.882Z,17.83
2022-12-14T00:21:27.706Z,17.23
2022-12-14T00:23:55.266Z,17.77
2022-12-14T00:26:31.012Z,16.60
2022-12-14T00:28:58.935Z,18.57
2022-12-14T00:31:25.887Z,18.70
2022-12-14T00:33:52.987Z,20.43
2022-12-14T00:36:20.117Z,17.93
2022-12-14T00:38:46.689Z,16.50
2022-12-14T00:41:13.232Z,16.87
2022-12-14T00:43:40.157Z,18.30
2022-12-14T00:46:07.209Z,18.30
2022-12-14T00:48:34.356Z,20.07
2022-12-14T00:51:00.988Z,21.13
2022-12-14T00:53:27.794Z,18.10
2022-12-14T00:55:54.632Z,16.30
2022-12-14T00:58:23.251Z,18.70
2022-12-14T01:01:06.790Z,19.63
2022-12-14T01:03:34.330Z,17.13
2022-12-14T01:06:01.072Z,18.10
2022-12-14T01:08:35.126Z,18.83
2022-12-14T01:11:06.565Z,18.73
2022-12-14T01:13:33.712Z,17.60
2022-12-14T01:16:06.158Z,17.47
2022-12-14T01:18:35.137Z,18.60
2022-12-14T01:21:19.961Z,19.37
2022-12-14T01:23:47.754Z,17.57
2022-12-14T01:26:16.221Z,18.30
2022-12-14T01:28:43.076Z,16.80
2022-12-14T01:31:12.582Z,18.97
2022-12-14T01:33:39.316Z,17.10
2022-12-14T01:36:17.713Z,18.73
2022-12-14T01:38:45.368Z,15.80
2022-12-14T01:41:39.534Z,17.67
2022-12-14T01:44:09.077Z,19.07
2022-12-14T01:46:57.988Z,17.50
2022-12-14T01:49:30.189Z,16.67
2022-12-14T01:52:14.672Z,16.53
2022-12-14T01:54:56.469Z,17.83
2022-12-14T01:57:39.051Z,18.50
2022-12-14T02:00:08.926Z,17.07
2022-12-14T02:02:39.552Z,20.17
2022-12-14T02:05:09.196Z,20.90
2022-12-14T02:07:36.204Z,18.43
2022-12-14T02:10:05.433Z,18.20
2022-12-14T02:12:38.740Z,18.23
2022-12-14T02:15:06.121Z,17.60
2022-12-14T02:17:32.844Z,16.53
2022-12-14T02:19:59.427Z,19.13
2022-12-14T02:23:15.124Z,16.60
2022-12-14T02:26:09.856Z,15.33
2022-12-14T02:29:01.561Z,17.40
2022-12-14T02:31:48.860Z,19.20
2022-12-14T02:34:41.190Z,19.43
2022-12-14T02:37:26.328Z,19.13
2022-12-14T02:40:04.128Z,18.97
2022-12-14T02:43:09.343Z,19.40
2022-12-14T02:45:50.333Z,18.90
2022-12-14T02:48:20.847Z,17.40
2022-12-14T02:50:59.635Z,18.27
2022-12-14T02:53:48.965Z,17.03
2022-12-14T02:56:22.681Z,19.87
2022-12-14T02:58:50.985Z,17.70
2022-12-14T03:01:26.009Z,18.13
2022-12-14T03:03:52.643Z,18.50
2022-12-14T03:06:28.054Z,18.97
2022-12-14T03:09:17.564Z,18.37
2022-12-14T03:11:56.095Z,18.63
2022-12-14T03:14:31.442Z,17.30
2022-12-14T03:17:09.677Z,18.13
2022-12-14T03:19:41.410Z,19.17
2022-12-14T03:22:11.652Z,17.57
2022-12-14T03:24:43.306Z,19.50
2022-12-14T03:27:22.129Z,23.20
2022-12-14T03:29:58.971Z,18.30
2022-12-14T03:32:29.422Z,19.10
2022-12-14T03:35:01.265Z,19.37
2022-12-14T03:37:54.681Z,18.23
2022-12-14T03:40:29.547Z,18.27
2022-12-14T03:43:20.788Z,16.27
2022-12-14T03:46:19.852Z,20.10
2022-12-14T03:48:53.560Z,19.43
2022-12-14T03:51:28.272Z,17.23
2022-12-14T03:54:06.678Z,16.27
2022-12-14T03:56:48.294Z,17.83
2022-12-14T03:59:39.374Z,17.23
2022-12-14T04:02:14.315Z,17.73
2022-12-14T04:04:50.966Z,18.37
2022-12-14T04:07:26.509Z,19.83
2022-12-14T04:09:59.186Z,18.17
2022-12-14T04:12:54.424Z,15.47
2022-12-14T04:15:50.494Z,16.13
2022-12-14T04:18:52.115Z,18.83
2022-12-14T04:21:43.004Z,17.50
2022-12-14T04:24:36.156Z,16.77
2022-12-14T04:27:32.662Z,17.87
2022-12-14T04:30:01.939Z,19.10
2022-12-14T04:32:51.793Z,16.37
2022-12-14T04:35:28.427Z,15.83
2022-12-14T04:38:00.772Z,17.63
2022-12-14T04:40:45.996Z,18.27
2022-12-14T04:43:17.101Z,18.10
2022-12-14T04:45:52.258Z,17.80
2022-12-14T04:48:54.246Z,18.93
2022-12-14T04:51:31.424Z,17.37
2022-12-14T04:54:09.220Z,18.80
2022-12-14T04:56:54.999Z,18.83
2022-12-14T04:59:22.541Z,18.97
2022-12-14T05:02:17.232Z,20.27
2022-12-14T05:04:59.996Z,15.93
2022-12-14T05:07:40.247Z,19.13
2022-12-14T05:10:11.162Z,16.60
2022-12-14T05:13:03.417Z,17.43
2022-12-14T05:15:42.675Z,16.50
2022-12-14T05:18:10.189Z,15.80
2022-12-14T05:20:36.849Z,17.97
2022-12-14T05:23:03.460Z,15.87
2022-12-14T05:25:30.099Z,15.40
2022-12-14T05:27:56.763Z,17.90
2022-12-14T05:30:23.565Z,15.87
2022-12-14T05:32:50.190Z,16.20
2022-12-14T05:35:17.085Z,16.10
2022-12-14T05:37:43.622Z,16.80
2022-12-14T05:40:11.067Z,17.47
2022-12-14T05:42:44.133Z,22.53
2022-12-14T05:45:13.037Z,17.67
2022-12-14T05:47:40.002Z,16.93
2022-12-14T05:50:07.826Z,16.57
2022-12-14T05:52:34.848Z,14.47
2022-12-14T05:55:04.554Z,15.27
2022-12-14T05:57:31.898Z,13.80
2022-12-14T05:59:58.495Z,17.17
2022-12-14T06:02:25.281Z,16.77
2022-12-14T06:04:51.947Z,16.77
2022-12-14T06:07:21.776Z,16.93
2022-12-14T06:09:52.519Z,17.23
2022-12-14T06:12:19.124Z,16.70
2022-12-14T06:14:45.808Z,17.10
2022-12-14T06:17:12.763Z,18.57
2022-12-14T06:19:39.368Z,15.70
2022-12-14T06:22:06.341Z,18.83
2022-12-14T06:24:33.086Z,15.80
2022-12-14T06:26:59.678Z,15.20
2022-12-14T06:29:26.455Z,16.00
2022-12-14T06:31:53.092Z,16.13
2022-12-14T06:34:23.413Z,16.03
2022-12-14T06:36:51.493Z,17.67
2022-12-14T06:39:18.147Z,15.50
2022-12-14T06:41:48.615Z,16.27
2022-12-14T06:44:15.195Z,17.93
2022-12-14T06:46:42.521Z,14.90
2022-12-14T06:49:13.846Z,15.43
2022-12-14T06:51:40.754Z,17.50
2022-12-14T06:54:10.333Z,16.30
2022-12-14T06:56:37.659Z,14.57
2022-12-14T06:59:05.368Z,17.13
2022-12-14T07:01:32.054Z,15.87
2022-12-14T07:03:59.566Z,17.17
2022-12-14T07:06:27.890Z,15.43
2022-12-14T07:08:59.235Z,16.10
2022-12-14T07:11:26.891Z,16.07
2022-12-14T07:13:54.333Z,14.30
2022-12-14T07:16:23.993Z,17.73
2022-12-14T07:18:51.436Z,14.50
2022-12-14T07:21:19.769Z,16.13
2022-12-14T07:23:48.176Z,15.60
2022-12-14T07:26:23.769Z,15.40
2022-12-14T07:28:51.424Z,13.47
2022-12-14T07:31:23.236Z,14.90
2022-12-14T07:33:53.011Z,14.60
2022-12-14T07:36:21.267Z,15.57
2022-12-14T07:38:49.766Z,14.57
2022-12-14T07:41:25.472Z,17.03
2022-12-14T07:43:54.226Z,16.20
2022-12-14T07:46:26.427Z,14.90
2022-12-14T07:48:55.383Z,15.43
2022-12-14T07:51:25.255Z,18.43
2022-12-14T07:53:52.442Z,17.33
2022-12-14T07:56:25.233Z,17.03
2022-12-14T07:58:52.530Z,15.63
2022-12-14T08:01:22.289Z,20.03
2022-12-14T08:03:51.825Z,14.47
2022-12-14T08:06:19.836Z,16.67
2022-12-14T08:08:46.556Z,17.67
2022-12-14T08:11:14.435Z,18.03
2022-12-14T08:13:43.216Z,14.87
2022-12-14T08:16:15.266Z,15.60
2022-12-14T08:18:42.972Z,18.03
2022-12-14T08:21:12.573Z,15.20
2022-12-14T08:23:39.234Z,16.63
2022-12-14T08:26:07.170Z,13.73
2022-12-14T08:28:35.854Z,15.53
2022-12-14T08:31:14.893Z,17.73
2022-12-14T08:33:42.723Z,18.53
2022-12-14T08:36:15.036Z,15.73
2022-12-14T08:38:42.292Z,14.27
2022-12-14T08:41:11.685Z,18.03
2022-12-14T08:43:39.279Z,15.00
2022-12-14T08:46:07.067Z,19.57
2022-12-14T08:48:34.061Z,17.67
2022-12-14T08:51:09.327Z,15.23
2022-12-14T08:53:37.384Z,18.70
2022-12-14T08:56:10.472Z,17.20
2022-12-14T08:58:37.610Z,15.20
2022-12-14T09:01:09.852Z,18.60
2022-12-14T09:03:36.539Z,15.23
2022-12-14T09:06:09.226Z,15.27
2022-12-14T09:08:36.116Z,15.73
2022-12-14T09:11:04.693Z,14.70
2022-12-14T09:13:32.081Z,15.13
2022-12-14T09:16:09.143Z,15.00
2022-12-14T09:18:35.874Z,15.67
2022-12-14T09:21:02.512Z,14.10
2022-12-14T09:23:31.102Z,14.10
2022-12-14T09:26:02.970Z,15.27
2022-12-14T09:28:30.839Z,13.63
2022-12-14T09:30:58.861Z,15.63
2022-12-14T09:33:26.899Z,16.07
2022-12-14T09:35:58.922Z,14.03
2022-12-14T09:38:25.566Z,18.47
2022-12-14T09:41:07.285Z,13.50
2022-12-14T09:43:42.033Z,14.73
2022-12-14T09:46:36.994Z,18.00
2022-12-14T09:49:04.172Z,15.83
2022-12-14T09:51:36.852Z,15.80
2022-12-14T09:54:08.243Z,13.33
2022-12-14T09:56:37.348Z,17.07
2022-12-14T09:59:05.208Z,18.47
2022-12-14T10:05:11.240Z,13.33
2022-12-14T10:07:40.636Z,13.93
2022-12-14T10:10:48.345Z,15.57
2022-12-14T10:13:32.425Z,16.23
2022-12-14T10:16:08.338Z,14.50
2022-12-14T10:18:59.148Z,16.90
2022-12-14T10:21:33.890Z,17.20
2022-12-14T10:24:03.272Z,15.90
2022-12-14T10:26:38.232Z,14.80
2022-12-14T10:29:21.846Z,16.17
2022-12-14T10:32:13.838Z,15.17
2022-12-14T10:34:41.790Z,17.87
2022-12-14T10:37:26.498Z,16.57
2022-12-14T10:40:22.034Z,15.07
2022-12-14T10:43:34.991Z,18.50
2022-12-14T10:46:40.463Z,15.10
2022-12-14T10:49:28.935Z,14.47
2022-12-14T10:52:05.295Z,16.37
2022-12-14T10:54:45.201Z,16.17
2022-12-14T10:57:19.716Z,13.07
2022-12-14T11:00:03.332Z,13.80
2022-12-14T11:02:37.967Z,14.20
2022-12-14T11:05:23.401Z,16.27
2022-12-14T11:07:50.112Z,14.47
2022-12-14T11:10:22.773Z,14.20
2022-12-14T11:13:12.506Z,13.80
2022-12-14T11:15:45.386Z,15.37
2022-12-14T11:18:11.969Z,15.50
2022-12-14T11:20:51.072Z,14.23
2022-12-14T11:23:25.381Z,15.73
2022-12-14T11:25:58.861Z,16.50
2022-12-14T11:28:39.637Z,15.90
2022-12-14T11:31:12.664Z,13.97
2022-12-14T11:33:44.826Z,18.70
2022-12-14T11:36:25.941Z,16.77
2022-12-14T11:39:01.223Z,18.23
2022-12-14T11:41:40.191Z,17.13
2022-12-14T11:44:15.644Z,17.63
2022-12-14T11:46:45.060Z,17.30
2022-12-14T11:49:27.651Z,14.53
2022-12-14T11:52:10.336Z,16.70
2022-12-14T11:54:39.888Z,15.37
2022-12-14T11:57:17.463Z,18.57
2022-12-14T12:00:00.047Z,12.63
2022-12-14T12:02:39.460Z,12.93
2022-12-14T12:05:13.084Z,14.20
2022-12-14T12:07:45.852Z,13.67
2022-12-14T12:10:12.343Z,16.13
2022-12-14T12:12:52.264Z,15.23
2022-12-14T12:15:43.104Z,12.00
2022-12-14T12:18:19.877Z,16.53
2022-12-14T12:20:58.994Z,14.97
2022-12-14T12:23:53.212Z,16.60
2022-12-14T12:26:25.171Z,13.53
2022-12-14T12:29:00.026Z,14.47
2022-12-14T12:31:34.019Z,16.23
2022-12-14T12:34:13.560Z,16.10
2022-12-14T12:36:51.721Z,15.93
2022-12-14T12:39:28.144Z,14.50
2022-12-14T12:42:21.564Z,14.77
2022-12-14T12:44:58.123Z,14.70
2022-12-14T12:47:46.628Z,20.53
2022-12-14T12:50:21.455Z,18.20
2022-12-14T12:53:03.231Z,16.10
2022-12-14T12:55:35.779Z,17.17
2022-12-14T12:58:09.400Z,13.97
2022-12-14T13:00:38.211Z,13.57
2022-12-14T13:03:17.015Z,13.27
2022-12-14T13:05:47.056Z,16.03
2022-12-14T13:08:22.948Z,13.90
2022-12-14T13:13:43.796Z,13.60
2022-12-14T13:16:31.009Z,14.67
2022-12-14T13:19:50.502Z,13.73
2022-12-14T13:22:24.777Z,13.10
2022-12-14T13:24:58.869Z,16.40
2022-12-14T13:27:50.524Z,14.43
2022-12-14T13:30:50.125Z,13.23
2022-12-14T13:33:41.238Z,17.10
2022-12-14T13:36:37.293Z,12.80
2022-12-14T13:39:29.824Z,14.17
2022-12-14T13:42:26.601Z,13.23
2022-12-14T13:44:59.978Z,13.70
2022-12-14T13:47:40.976Z,15.17
2022-12-14T13:50:41.934Z,16.67
2022-12-14T13:53:34.857Z,16.40
2022-12-14T13:56:02.300Z,14.60
2022-12-14T13:58:43.207Z,16.63
2022-12-14T14:01:15.715Z,16.50
2022-12-14T14:03:46.177Z,16.37
2022-12-14T14:06:12.815Z,15.70
2022-12-14T14:08:44.896Z,17.20
2022-12-14T14:11:39.516Z,16.07
2022-12-14T14:14:43.768Z,15.23
2022-12-14T14:17:26.719Z,16.90
2022-12-14T14:19:56.087Z,19.63
2022-12-14T14:22:25.990Z,16.50
2022-12-14T14:25:31.288Z,16.20
2022-12-14T14:28:00.284Z,19.40
2022-12-14T14:30:41.181Z,24.47
2022-12-14T14:33:45.299Z,18.50
2022-12-14T14:36:33.605Z,19.63
2022-12-14T14:39:31.193Z,18.10
2022-12-14T14:41:54.365Z,13.90
2022-12-14T14:44:43.656Z,17.43
2022-12-14T14:47:20.846Z,17.77
2022-12-14T14:49:53.213Z,16.73
2022-12-14T14:52:41.491Z,18.87
2022-12-14T14:58:30.432Z,17.70
2022-12-14T15:01:07.962Z,17.43
2022-12-14T15:03:55.242Z,16.83
2022-12-14T15:06:26.345Z,20.00
2022-12-14T15:09:05.217Z,17.87
2022-12-14T15:11:48.858Z,16.80
2022-12-14T15:14:18.480Z,22.53
2022-12-14T15:16:45.698Z,17.57
2022-12-14T15:19:33.495Z,16.20
2022-12-14T15:22:05.147Z,19.57
2022-12-14T15:24:39.898Z,20.60
2022-12-14T15:27:32.626Z,17.13
2022-12-14T15:30:11.650Z,16.87
2022-12-14T15:32:47.213Z,20.10
2022-12-14T15:35:17.895Z,18.13
2022-12-14T15:37:54.754Z,18.13
2022-12-14T15:40:26.992Z,20.37
2022-12-14T15:42:59.157Z,22.13
2022-12-14T15:45:31.462Z,22.33
2022-12-14T15:48:24.566Z,20.17
2022-12-14T15:50:57.430Z,21.87
2022-12-14T15:53:34.321Z,22.47
2022-12-14T15:56:18.591Z,19.73
2022-12-14T15:58:45.720Z,18.70
2022-12-14T16:01:16.933Z,20.40
2022-12-14T16:03:53.736Z,21.60
2022-12-14T16:06:22.124Z,21.13
2022-12-14T16:08:54.960Z,20.57
2022-12-14T16:11:35.099Z,22.60
2022-12-14T16:14:09.470Z,23.87
2022-12-14T16:16:36.285Z,19.70
2022-12-14T16:19:25.700Z,23.27
2022-12-14T16:22:15.892Z,20.23
2022-12-14T16:25:19.670Z,20.10
2022-12-14T16:27:50.333Z,22.23
2022-12-14T16:30:23.134Z,22.87
2022-12-14T16:32:52.956Z,20.43
2022-12-14T16:35:26.117Z,25.37
2022-12-14T16:37:55.665Z,25.90
2022-12-14T16:40:33.561Z,25.97
2022-12-14T16:43:00.641Z,29.77
2022-12-14T16:45:36.526Z,30.77
2022-12-14T16:48:13.143Z,28.03
2022-12-14T16:50:56.636Z,24.63
2022-12-14T16:53:29.560Z,22.20
2022-12-14T16:56:05.810Z,22.67
2022-12-14T16:58:33.371Z,24.63
2022-12-14T17:01:03.780Z,24.53
2022-12-14T17:03:31.666Z,25.50
2022-12-14T17:06:06.883Z,24.63
2022-12-14T17:08:34.080Z,25.57
2022-12-14T17:11:02.078Z,26.40
2022-12-14T17:13:29.307Z,28.27
2022-12-14T17:16:07.579Z,31.53
2022-12-14T17:18:38.990Z,25.40
2022-12-14T17:21:08.541Z,24.70
2022-12-14T17:23:38.300Z,26.67
2022-12-14T17:26:05.238Z,28.03
2022-12-14T17:28:34.541Z,29.20
2022-12-14T17:31:02.869Z,28.53
2022-12-14T17:33:31.612Z,29.60
2022-12-14T17:35:58.655Z,31.77
2022-12-14T17:38:25.202Z,34.50
2022-12-14T17:40:53.756Z,32.60
2022-12-14T17:43:24.505Z,30.07
2022-12-14T17:45:51.301Z,29.67
2022-12-14T17:48:18.269Z,33.80
2022-12-14T17:50:47.798Z,29.80
2022-12-14T17:53:16.567Z,27.23
2022-12-14T17:55:43.871Z,31.27
2022-12-14T17:58:11.321Z,33.10
2022-12-14T18:00:56.354Z,32.80
2022-12-14T18:03:23.226Z,29.33
2022-12-14T18:05:50.344Z,30.23
2022-12-14T18:08:17.877Z,30.97
2022-12-14T18:10:45.365Z,30.33
2022-12-14T18:13:12.740Z,32.37
2022-12-14T18:15:51.567Z,31.10
2022-12-14T18:18:22.896Z,33.77
2022-12-14T18:20:55.213Z,33.90
2022-12-14T18:23:22.780Z,30.37
2022-12-14T18:25:52.711Z,30.23
2022-12-14T18:28:19.955Z,33.73
2022-12-14T18:30:51.143Z,31.33
2022-12-14T18:33:21.042Z,32.73
2022-12-14T18:35:48.837Z,30.37
2022-12-14T18:38:15.745Z,31.17
2022-12-14T18:40:47.792Z,35.67
2022-12-14T18:43:23.456Z,31.40
2022-12-14T18:45:52.256Z,36.03
2022-12-14T18:48:19.216Z,30.77
2022-12-14T18:50:46.133Z,32.33
2022-12-14T18:53:18.625Z,33.83
2022-12-14T18:55:45.622Z,33.90
2022-12-14T18:58:20.740Z,35.37
2022-12-14T19:00:48.907Z,33.37
2022-12-14T19:03:15.607Z,31.03
2022-12-14T19:05:42.446Z,32.77
2022-12-14T19:08:10.791Z,32.73
2022-12-14T19:10:40.730Z,32.07
2022-12-14T19:13:09.506Z,32.50
2022-12-14T19:15:36.295Z,32.63
2022-12-14T19:18:03.044Z,35.17
2022-12-14T19:20:30.123Z,29.07
2022-12-14T19:22:57.064Z,34.13
2022-12-14T19:25:24.705Z,34.23
2022-12-14T19:30:39.795Z,33.97
2022-12-14T19:33:06.711Z,35.10
2022-12-14T19:35:33.670Z,34.13
2022-12-14T19:38:00.304Z,32.90
2022-12-14T19:40:26.929Z,34.63
2022-12-14T19:42:53.716Z,33.63
2022-12-14T19:45:20.680Z,34.57
2022-12-14T19:47:47.677Z,33.67
2022-12-14T19:50:15.068Z,33.30
2022-12-14T19:52:42.350Z,34.30
2022-12-14T19:55:10.401Z,32.20
2022-12-14T19:57:38.664Z,36.27
2022-12-14T20:00:09.274Z,33.83
2022-12-14T20:02:36.675Z,31.80
2022-12-14T20:05:09.471Z,33.83
2022-12-14T20:07:41.909Z,31.87
2022-12-14T20:10:13.538Z,35.60
2022-12-14T20:12:40.348Z,34.33
2022-12-14T20:15:10.265Z,38.27
2022-12-14T20:17:36.985Z,36.10
2022-12-14T20:20:03.817Z,31.77
2022-12-14T20:22:31.159Z,34.23
2022-12-14T20:25:02.272Z,38.70
2022-12-14T20:30:11.640Z,34.33
2022-12-14T20:32:42.339Z,37.83
2022-12-14T20:35:11.924Z,36.57
2022-12-14T20:37:38.543Z,35.10
2022-12-14T20:40:08.331Z,31.93
2022-12-14T20:42:35.392Z,41.23
2022-12-14T20:45:06.808Z,34.87
2022-12-14T20:47:33.983Z,37.87
2022-12-14T20:50:00.625Z,32.60
2022-12-14T20:52:27.193Z,38.30
2022-12-14T20:54:53.814Z,38.60
2022-12-14T20:57:20.450Z,36.27
2022-12-14T20:59:47.132Z,33.23
2022-12-14T21:02:17.223Z,31.93
2022-12-14T21:04:44.237Z,37.73
2022-12-14T21:07:11.435Z,33.80
2022-12-14T21:09:38.392Z,35.43
2022-12-14T21:12:23.355Z,36.30
2022-12-14T21:14:54.738Z,34.57
2022-12-14T21:17:24.189Z,34.70
2022-12-14T21:19:51.556Z,35.17
2022-12-14T21:22:21.880Z,38.87
2022-12-14T21:25:06.007Z,38.27
2022-12-14T21:27:35.240Z,36.77
2022-12-14T21:30:01.898Z,34.40
2022-12-14T21:32:28.694Z,34.80
2022-12-14T21:34:55.290Z,35.63
2022-12-14T21:37:22.040Z,39.73
2022-12-14T21:39:54.183Z,39.93
2022-12-14T21:42:25.767Z,34.93
2022-12-14T21:44:53.826Z,39.60
2022-12-14T21:47:26.099Z,39.43
2022-12-14T21:49:53.379Z,38.53
2022-12-14T21:52:23.018Z,35.47
2022-12-14T21:54:49.919Z,38.87
2022-12-14T21:57:41.343Z,40.10
2022-12-14T22:00:09.906Z,36.80
2022-12-14T22:02:36.645Z,37.57
2022-12-14T22:05:03.564Z,38.57
2022-12-14T22:07:32.568Z,40.30
2022-12-14T22:09:59.513Z,36.73
2022-12-14T22:12:26.283Z,36.00
2022-12-14T22:14:53.152Z,38.40
2022-12-14T22:17:19.727Z,40.43
2022-12-14T22:19:46.306Z,32.50
2022-12-14T22:22:16.951Z,35.93
2022-12-14T22:24:44.590Z,35.87
2022-12-14T22:27:12.598Z,33.77
2022-12-14T22:29:39.696Z,35.13
2022-12-14T22:32:07.554Z,37.20
2022-12-14T22:34:34.512Z,41.43
2022-12-14T22:37:01.174Z,36.63
2022-12-14T22:39:27.762Z,35.30
2022-12-14T22:41:54.478Z,39.50
2022-12-14T22:44:21.085Z,35.77
2022-12-14T22:46:47.741Z,35.70
2022-12-14T22:49:18.988Z,37.70
2022-12-14T22:51:45.920Z,37.87
2022-12-14T22:54:24.757Z,39.77
2022-12-14T22:57:04.340Z,38.00
2022-12-14T22:59:37.382Z,39.73
2022-12-14T23:02:04.534Z,39.17
2022-12-14T23:04:31.575Z,38.63
2022-12-14T23:06:58.142Z,37.17
2022-12-14T23:09:43.520Z,39.90
2022-12-14T23:12:28.873Z,36.10
2022-12-14T23:15:14.208Z,33.57
2022-12-14T23:17:59.544Z,38.23
2022-12-14T23:20:44.879Z,36.50
2022-12-14T23:23:30.754Z,42.70
2022-12-14T23:26:20.761Z,36.13
2022-12-14T23:29:06.142Z,37.83
2022-12-14T23:31:51.642Z,40.13
2022-12-14T23:34:37.031Z,36.83
2022-12-14T23:37:22.310Z,38.07
2022-12-14T23:40:07.737Z,38.60
2022-12-14T23:42:53.064Z,38.23
2022-12-14T23:45:38.612Z,42.07
2022-12-14T23:48:24.017Z,38.30
2022-12-14T23:51:09.508Z,40.37
2022-12-14T23:53:55.020Z,37.10
2022-12-14T23:56:40.362Z,38.37
2022-12-14T23:59:31.650Z,38.30
